createdAt,value
2017-08-01T00:00:01.444Z,96948.52
2017-08-01T00:04:48.053Z,96944.81
2017-08-01T00:09:34.686Z,96951.78
2017-08-01T00:14:21.311Z,96952.01
2017-08-01T00:19:08.229Z,96952.84
2017-08-01T00:23:54.858Z,96955.42
2017-08-01T00:28:41.511Z,96958.80
2017-08-01T00:33:28.108Z,96954.91
2017-08-01T00:38:14.723Z,96953.02
2017-08-01T00:43:01.356Z,96953.34
2017-08-01T00:47:48.800Z,96954.69
2017-08-01T00:52:36.166Z,96959.11
2017-08-01T00:57:22.817Z,96956.59
2017-08-01T01:02:09.449Z,96947.27
2017-08-01T01:06:56.086Z,96945.06
2017-08-01T01:11:43.594Z,96947.50
2017-08-01T01:16:30.312Z,96943.99
2017-08-01T01:21:16.938Z,96934.55
2017-08-01T01:26:03.626Z,96938.13
2017-08-01T01:30:50.364Z,96939.96
2017-08-01T01:35:37.104Z,96946.60
2017-08-01T01:40:23.854Z,96952.63
2017-08-01T01:45:11.209Z,96940.41
2017-08-01T01:49:58.581Z,96939.22
2017-08-01T01:54:45.284Z,96937.66
2017-08-01T01:59:31.909Z,96943.88
2017-08-01T02:04:18.608Z,96949.64
2017-08-01T02:09:05.949Z,96951.44
2017-08-01T02:13:52.580Z,96957.98
2017-08-01T02:18:39.212Z,96947.89
2017-08-01T02:23:25.855Z,96951.70
2017-08-01T02:28:12.558Z,96951.17
2017-08-01T02:32:59.201Z,96946.90
2017-08-01T02:37:45.845Z,96941.47
2017-08-01T02:42:32.464Z,96947.18
2017-08-01T02:47:19.071Z,96938.42
2017-08-01T02:52:05.716Z,96948.62
2017-08-01T02:56:53.060Z,96955.05
2017-08-01T03:01:40.445Z,96962.82
2017-08-01T03:06:27.111Z,96965.61
2017-08-01T03:11:14.496Z,96964.84
2017-08-01T03:16:01.121Z,96963.55
2017-08-01T03:20:47.732Z,96966.56
2017-08-01T03:25:34.347Z,96970.52
2017-08-01T03:30:20.979Z,96974.60
2017-08-01T03:35:07.626Z,96973.75
2017-08-01T03:39:54.251Z,96973.50
2017-08-01T03:44:40.890Z,96977.92
2017-08-01T03:49:28.281Z,96979.95
2017-08-01T03:54:14.919Z,96981.11
2017-08-01T03:59:01.546Z,96975.95
2017-08-01T04:03:48.184Z,96981.84
2017-08-01T04:08:35.585Z,96993.00
2017-08-01T04:13:22.266Z,96995.65
2017-08-01T04:18:08.906Z,96992.59
2017-08-01T04:22:55.522Z,96989.73
2017-08-01T04:27:42.160Z,96993.80
2017-08-01T04:32:28.855Z,96997.30
2017-08-01T04:37:15.681Z,96989.98
2017-08-01T04:42:02.386Z,96992.08
2017-08-01T04:46:49.046Z,96991.28
2017-08-01T04:51:35.734Z,96993.48
2017-08-01T04:56:22.360Z,96987.98
2017-08-01T05:01:08.977Z,96988.80
2017-08-01T05:05:55.673Z,96993.05
2017-08-01T05:10:43.042Z,96999.69
2017-08-01T05:15:29.710Z,97006.81
2017-08-01T05:20:16.342Z,97006.25
2017-08-01T05:25:02.960Z,97012.05
2017-08-01T05:29:49.597Z,97010.95
2017-08-01T05:34:37.027Z,97024.72
2017-08-01T05:39:24.472Z,97024.55
2017-08-01T05:44:11.847Z,97028.94
2017-08-01T05:48:58.626Z,97037.69
2017-08-01T05:53:45.972Z,97035.83
2017-08-01T05:58:33.393Z,97041.99
2017-08-01T06:03:20.042Z,97052.61
2017-08-01T06:08:07.471Z,97051.47
2017-08-01T06:12:54.836Z,97058.31
2017-08-01T06:17:41.463Z,97065.84
2017-08-01T06:22:28.131Z,97065.75
2017-08-01T06:27:14.821Z,97073.65
2017-08-01T06:32:01.478Z,97080.22
2017-08-01T06:36:48.122Z,97085.95
2017-08-01T06:41:34.746Z,97098.22
2017-08-01T06:46:21.382Z,97111.22
2017-08-01T06:51:08.023Z,97129.17
2017-08-01T06:55:54.641Z,97128.84
2017-08-01T07:00:41.311Z,97125.30
2017-08-01T07:05:27.975Z,97122.69
2017-08-01T07:10:14.595Z,97124.80
2017-08-01T07:15:01.235Z,97134.95
2017-08-01T07:19:47.868Z,97136.56
2017-08-01T07:24:34.499Z,97140.06
2017-08-01T07:29:21.166Z,97142.14
2017-08-01T07:34:07.865Z,97150.05
2017-08-01T07:38:54.515Z,97152.88
2017-08-01T07:43:41.145Z,97151.97
2017-08-01T07:48:27.770Z,97146.11
2017-08-01T07:53:14.431Z,97136.47
2017-08-01T07:58:01.064Z,97141.29
2017-08-01T08:02:48.442Z,97154.44
2017-08-01T08:07:35.165Z,97152.66
2017-08-01T08:12:21.943Z,97151.91
2017-08-01T08:17:08.637Z,97165.01
2017-08-01T08:21:55.273Z,97157.22
2017-08-01T08:26:42.640Z,97165.56
2017-08-01T08:31:29.302Z,97166.34
2017-08-01T08:36:15.957Z,97159.56
2017-08-01T08:41:02.582Z,97151.14
2017-08-01T08:45:49.981Z,97152.44
2017-08-01T08:50:36.617Z,97143.25
2017-08-01T08:55:23.291Z,97138.80
2017-08-01T09:00:09.959Z,97139.14
2017-08-01T09:04:56.596Z,97123.61
2017-08-01T09:09:44.037Z,97127.95
2017-08-01T09:14:31.392Z,97126.00
2017-08-01T09:19:18.022Z,97117.62
2017-08-01T09:24:04.720Z,97117.52
2017-08-01T09:28:52.081Z,97112.33
2017-08-01T09:33:38.720Z,97107.48
2017-08-01T09:38:25.392Z,97110.63
2017-08-01T09:43:12.779Z,97094.70
2017-08-01T09:47:59.422Z,97095.91
2017-08-01T09:52:46.041Z,97094.33
2017-08-01T09:57:32.690Z,97098.94
2017-08-01T10:02:19.327Z,97095.58
2017-08-01T10:07:05.974Z,97106.67
2017-08-01T10:11:52.630Z,97095.30
2017-08-01T10:16:39.550Z,97092.80
2017-08-01T10:21:26.180Z,97085.04
2017-08-01T10:26:12.843Z,97078.34
2017-08-01T10:30:59.513Z,97069.35
2017-08-01T10:35:46.246Z,97063.17
2017-08-01T10:40:32.899Z,97061.77
2017-08-01T10:45:19.624Z,97052.63
2017-08-01T10:50:06.330Z,97044.08
2017-08-01T10:54:53.726Z,97040.94
2017-08-01T10:59:40.454Z,97036.33
2017-08-01T11:04:27.082Z,97028.92
2017-08-01T11:09:13.696Z,97009.75
2017-08-01T11:14:00.400Z,96999.63
2017-08-01T11:18:47.015Z,96996.39
2017-08-01T11:23:33.657Z,96993.59
2017-08-01T11:28:20.294Z,96990.11
2017-08-01T11:33:06.934Z,96976.22
2017-08-01T11:37:54.314Z,96970.91
2017-08-01T11:42:41.201Z,96973.09
2017-08-01T11:47:28.638Z,96977.59
2017-08-01T11:52:16.086Z,96971.77
2017-08-01T11:57:02.777Z,96970.95
2017-08-01T12:01:49.500Z,96974.52
2017-08-01T12:06:36.328Z,96972.75
2017-08-01T12:11:22.993Z,96971.94
2017-08-01T12:16:09.684Z,96962.52
2017-08-01T12:20:57.141Z,96966.03
2017-08-01T12:25:43.862Z,96971.76
2017-08-01T12:30:30.552Z,96956.77
2017-08-01T12:35:17.187Z,96952.66
2017-08-01T12:40:04.661Z,96936.02
2017-08-01T12:44:51.325Z,96925.89
2017-08-01T12:49:38.017Z,96915.09
2017-08-01T12:54:24.913Z,96911.92
2017-08-01T12:59:11.626Z,96912.28
2017-08-01T13:03:58.283Z,96906.90
2017-08-01T13:08:45.349Z,96904.09
2017-08-01T13:13:31.989Z,96898.45
2017-08-01T13:18:19.348Z,96903.23
2017-08-01T13:23:05.995Z,96901.23
2017-08-01T13:27:52.640Z,96898.48
2017-08-01T13:32:39.426Z,96885.02
2017-08-01T13:37:26.125Z,96872.16
2017-08-01T13:42:12.911Z,96882.48
2017-08-01T13:46:59.651Z,96874.28
2017-08-01T13:51:47.109Z,96867.10
2017-08-01T13:56:33.782Z,96867.52
2017-08-01T14:01:20.430Z,96854.81
2017-08-01T14:06:07.846Z,96854.89
2017-08-01T14:10:54.852Z,96850.62
2017-08-01T14:15:41.651Z,96843.55
2017-08-01T14:20:28.589Z,96851.66
2017-08-01T14:25:15.294Z,96839.27
2017-08-01T14:30:01.959Z,96844.58
2017-08-01T14:34:48.984Z,96839.61
2017-08-01T14:39:35.618Z,96830.01
2017-08-01T14:44:22.273Z,96834.77
2017-08-01T14:49:09.639Z,96833.16
2017-08-01T14:53:56.339Z,96836.26
2017-08-01T14:58:43.708Z,96837.51
2017-08-01T15:03:30.347Z,96836.94
2017-08-01T15:08:16.985Z,96840.20
2017-08-01T15:13:03.698Z,96830.14
2017-08-01T15:17:50.336Z,96827.31
2017-08-01T15:22:37.010Z,96828.23
2017-08-01T15:27:23.680Z,96822.39
2017-08-01T15:32:11.279Z,96817.64
2017-08-01T15:36:57.966Z,96797.55
2017-08-01T15:41:44.687Z,96791.16
2017-08-01T15:46:31.418Z,96782.53
2017-08-01T15:51:18.136Z,96778.44
2017-08-01T15:56:05.010Z,96772.08
2017-08-01T16:00:51.730Z,96756.46
2017-08-01T16:05:38.521Z,96748.19
2017-08-01T16:10:25.175Z,96749.94
2017-08-01T16:15:11.820Z,96757.98
2017-08-01T16:19:58.508Z,96752.59
2017-08-01T16:24:45.226Z,96751.68
2017-08-01T16:29:31.895Z,96743.14
2017-08-01T16:34:19.626Z,96745.73
2017-08-01T16:39:06.277Z,96735.95
2017-08-01T16:43:53.099Z,96726.33
2017-08-01T16:48:40.455Z,96722.22
2017-08-01T16:53:27.099Z,96711.09
2017-08-01T16:58:13.749Z,96704.66
2017-08-01T17:03:00.457Z,96700.03
2017-08-01T17:07:47.176Z,96687.41
2017-08-01T17:12:33.882Z,96684.33
2017-08-01T17:17:20.528Z,96685.30
2017-08-01T17:22:07.192Z,96687.58
2017-08-01T17:26:53.888Z,96696.44
2017-08-01T17:31:41.398Z,96713.57
2017-08-01T17:36:28.344Z,96720.67
2017-08-01T17:41:15.005Z,96717.36
2017-08-01T17:46:01.794Z,96740.72
2017-08-01T17:50:48.524Z,96747.62
2017-08-01T17:55:35.924Z,96756.80
2017-08-01T18:00:22.806Z,96754.33
2017-08-01T18:05:09.541Z,96742.99
2017-08-01T18:09:56.302Z,96736.86
2017-08-01T18:14:42.996Z,96713.49
2017-08-01T18:19:29.714Z,96711.64
2017-08-01T18:24:16.488Z,96696.27
2017-08-01T18:29:03.238Z,96695.89
2017-08-01T18:33:50.893Z,96696.91
2017-08-01T18:38:37.518Z,96695.89
2017-08-01T18:43:24.625Z,96706.34
2017-08-01T18:48:11.355Z,96701.36
2017-08-01T18:52:58.025Z,96689.59
2017-08-01T18:57:44.775Z,96691.88
2017-08-01T19:02:31.459Z,96711.50
2017-08-01T19:07:18.146Z,96714.00
2017-08-01T19:12:04.830Z,96725.09
2017-08-01T19:16:51.619Z,96734.65
2017-08-01T19:21:38.327Z,96754.39
2017-08-01T19:26:24.968Z,96752.73
2017-08-01T19:31:11.651Z,96756.17
2017-08-01T19:35:58.282Z,96769.25
2017-08-01T19:40:44.930Z,96795.25
2017-08-01T19:45:31.648Z,96799.17
2017-08-01T19:50:18.329Z,96836.62
2017-08-01T19:55:05.368Z,96937.31
2017-08-01T19:59:52.037Z,96937.05
2017-08-01T20:04:38.692Z,96961.41
2017-08-01T20:09:26.133Z,97029.05
2017-08-01T20:14:12.774Z,97057.63
2017-08-01T20:18:59.482Z,97132.90
2017-08-01T20:23:46.904Z,97179.79
2017-08-01T20:28:34.342Z,97221.10
2017-08-01T20:33:21.150Z,97298.44
2017-08-01T20:38:07.890Z,97348.59
2017-08-01T20:42:54.638Z,97352.95
2017-08-01T20:47:41.356Z,97342.92
2017-08-01T20:52:28.254Z,97372.67
2017-08-01T20:57:14.911Z,97374.20
2017-08-01T21:02:01.561Z,97387.92
2017-08-01T21:06:48.252Z,97398.99
2017-08-01T21:11:34.904Z,97387.14
2017-08-01T21:16:21.542Z,97364.38
2017-08-01T21:21:08.175Z,97238.27
2017-08-01T21:25:54.861Z,97153.02
2017-08-01T21:30:41.484Z,97223.58
2017-08-01T21:35:28.122Z,97240.30
2017-08-01T21:40:14.884Z,97219.35
2017-08-01T21:45:01.572Z,97235.34
2017-08-01T21:49:48.194Z,97272.45
2017-08-01T21:54:34.846Z,97272.63
2017-08-01T21:59:22.213Z,97285.25
2017-08-01T22:04:08.812Z,97273.98
2017-08-01T22:08:55.450Z,97260.57
2017-08-01T22:13:42.107Z,97259.42
2017-08-01T22:18:28.724Z,97284.66
2017-08-01T22:23:15.381Z,97317.02
2017-08-01T22:28:02.768Z,97310.89
2017-08-01T22:32:49.398Z,97309.20
2017-08-01T22:37:36.062Z,97294.65
2017-08-01T22:42:23.474Z,97298.19
2017-08-01T22:47:10.097Z,97313.69
2017-08-01T22:51:56.705Z,97353.17
2017-08-01T22:56:43.339Z,97339.13
2017-08-01T23:01:29.955Z,97310.66
2017-08-01T23:06:16.613Z,97323.09
2017-08-01T23:11:03.276Z,97305.02
2017-08-01T23:15:49.914Z,97241.49
2017-08-01T23:20:36.584Z,97202.78
2017-08-01T23:25:23.247Z,97181.30
2017-08-01T23:30:09.883Z,97182.30
2017-08-01T23:34:56.516Z,97206.02
2017-08-01T23:39:43.968Z,97228.84
2017-08-01T23:44:31.445Z,97254.06
2017-08-01T23:49:18.098Z,97261.08
2017-08-01T23:54:04.814Z,97236.88
2017-08-01T23:58:51.508Z,97259.22
